• Join FlightAware (Why Join?)
  • Login
  • US Flag 
01:41AM EST


 

Airport Tracker/Info


-or-


 

Live Flight TrackerFlight Track Log ✈ TAM3386 ✈ 30-Sep-2013 ✈ SBGR / GRU - SBBE / BEL

Flight Track Log - Related Links

Times and Time Zones

All times are in EDT time to prevent confusion due to time zone crossing. See the TAM3386 flight status page for this flight to view local times or setup timezone preferences in your user account.

Time Position Orientation Groundspeed Altitude Reporting Facility
EDT Latitude Longitude Course Direction KTS MPH feet Rate Location/Type
07:05PM -23.4320 -46.4730 90° East 125 144  Level FlightAware
07:05PM -23.4260 -46.4530 72° East 174 200 2,800 4,235 Climbing FlightAware
07:06PM -23.4200 -46.4320 73° East 180 207 3,600 1,333 Climbing FlightAware
07:06PM -23.4150 -46.4130 74° East 202 232 3,800 769 Climbing FlightAware
07:06PM -23.4080 -46.3920 70° East 225 259 4,100 878 Climbing FlightAware
07:07PM -23.4030 -46.3740 73° East 243 280 4,400 1,200 Climbing FlightAware
07:07PM -23.3940 -46.3460 71° East 267 307 4,900 2,154 Climbing FlightAware
07:07PM -23.3860 -46.3190 72° East 275 316 5,800 2,400 Climbing FlightAware
07:08PM -23.3770 -46.2930 69° East 286 329 6,500 2,129 Climbing FlightAware
07:08PM -23.3690 -46.2820 52° Northeast 283 326 6,900 2,286 Climbing FlightAware
07:08PM -23.3560 -46.2730 32° Northeast 271 312 7,300 2,276 Climbing FlightAware
07:08PM -23.3330 -46.2640 20° North 276 318 8,000 2,308 Climbing FlightAware
07:09PM -23.3070 -46.2550 18° North 290 334 8,800 2,250 Climbing FlightAware
07:09PM -23.2810 -46.2450 19° North 288 331 9,500 2,073 Climbing FlightAware
07:10PM -23.2360 -46.2280 19° North 307 353 10,700 1,437 Climbing FlightAware
07:10PM -23.1860 -46.2080 20° North 343 395 11,200 1,200 Climbing FlightAware
07:11PM -23.1400 -46.1900 20° North 358 412 12,000 1,636 Climbing FlightAware
07:11PM -23.0990 -46.1760 17° North 366 421 12,700 1,714 Climbing FlightAware
07:11PM -23.0830 -46.1740 North 355 409 13,000 1,600 Climbing FlightAware
07:12PM -23.0610 -46.1780 351° North 359 413 13,500 1,655 Climbing FlightAware
07:12PM -22.9990 -46.1880 352° North 371 427 14,600 1,760 Climbing FlightAware
07:13PM -22.9330 -46.2000 350° North 381 438 15,700 1,833 Climbing FlightAware
07:13PM -22.8750 -46.2100 351° North 385 443 16,800 2,149 Climbing FlightAware
07:14PM -22.8160 -46.2200 351° North 380 437 18,100 2,595 Climbing FlightAware
07:15PM -22.7460 -46.2320 351° North 362 417 20,000 2,231 Climbing FlightAware
07:15PM -22.6830 -46.2430 351° North 365 420 21,000 1,690 Climbing FlightAware
07:16PM -22.6260 -46.2520 352° North 365 420 22,000 1,644 Climbing FlightAware
07:16PM -22.5630 -46.2630 351° North 368 423 23,000 1,324 Climbing FlightAware
07:17PM -22.5130 -46.2720 351° North 374 430 23,500 831 Climbing FlightAware
07:17PM -22.4480 -46.2830 351° North 388 447 23,900 960 Climbing FlightAware
07:18PM -22.3810 -46.2940 351° North 391 450 24,700 1,184 Climbing FlightAware
07:19PM -22.3130 -46.3060 351° North 395 455 25,400 1,615 Climbing FlightAware
07:19PM -22.2390 -46.3180 351° North 382 440 26,800 1,367 Climbing FlightAware
07:20PM -22.1700 -46.3300 351° North 390 449 27,200 592 Climbing FlightAware
07:21PM -22.1110 -46.3400 351° North 404 465 27,500 507 Climbing FlightAware
07:21PM -22.0400 -46.3540 350° North 414 476 27,800 506 Climbing FlightAware
07:22PM -21.9520 -46.3700 350° North 424 488 28,200 684 Climbing FlightAware
07:23PM -21.8880 -46.3820 350° North 426 490 28,700 930 Climbing FlightAware
07:23PM -21.8120 -46.3940 352° North 428 493 29,300 1,000 Climbing FlightAware
07:24PM -21.7500 -46.4040 351° North 424 488 29,900 532 Climbing FlightAware
07:25PM -21.6610 -46.4180 352° North 419 482 30,000 308 Climbing FlightAware
07:25PM -21.5960 -46.4290 351° North 419 482 30,300 658 Climbing FlightAware
07:26PM -21.5250 -46.4410 351° North 422 486 30,800 560 Climbing FlightAware
07:26PM -21.4510 -46.4530 351° North 421 484 31,000 162 Climbing FlightAware
07:27PM -21.3800 -46.4650 351° North 423 487 31,000  Level FlightAware
07:28PM -21.2960 -46.4780 352° North 423 487 31,000  Level FlightAware
07:28PM -21.2360 -46.4880 351° North 421 484 31,000  Level FlightAware
07:29PM -21.1540 -46.5020 351° North 418 481 31,000  Level FlightAware
07:29PM -21.0830 -46.5130 352° North 417 480 31,000  Level FlightAware
07:30PM -21.0160 -46.5240 351° North 419 482 31,000  Level FlightAware
07:31PM -20.9490 -46.5350 351° North 420 483 31,000  Level FlightAware
07:31PM -20.8790 -46.5460 352° North 422 486 31,000  Level FlightAware
07:32PM -20.8090 -46.5580 351° North 426 490 31,000  Level FlightAware
07:32PM -20.7370 -46.5690 352° North 431 496 31,000  Level FlightAware
07:33PM -20.6750 -46.5790 351° North 432 497 31,000 88 Level FlightAware
07:33PM -20.6020 -46.5910 351° North 432 497 31,100  Climbing FlightAware
07:34PM -20.5330 -46.6020 352° North 432 497 31,000 -83 Descending FlightAware
07:35PM -20.4590 -46.6150 351° North 431 496 31,000  Level FlightAware
07:35PM -20.4000 -46.6260 350° North 432 497 31,000  Level FlightAware
07:36PM -20.3250 -46.6230 North 457 526 31,000  Level FlightAware
07:36PM -20.2660 -46.6010 19° North 467 537 31,000  Level FlightAware
07:37PM -20.1960 -46.5660 25° Northeast 464 534 31,000  Level FlightAware
07:37PM -20.1330 -46.5400 21° North 459 528 31,000  Level FlightAware
07:38PM -20.0580 -46.5100 21° North 458 527 31,000  Level FlightAware
07:39PM -19.9850 -46.4800 21° North 457 526 31,000  Level FlightAware
07:39PM -19.9210 -46.4540 21° North 459 528 31,000  Level FlightAware
07:40PM -19.8500 -46.4260 20° North 458 527 31,000  Level FlightAware
07:40PM -19.7790 -46.3980 20° North 460 529 31,000  Level FlightAware
07:41PM -19.7060 -46.3690 21° North 459 528 31,000  Level FlightAware
07:41PM -19.6430 -46.3400 23° Northeast 464 534 31,000  Level FlightAware
07:42PM -19.5790 -46.3080 25° Northeast 462 532 31,000  Level FlightAware
07:43PM -19.5090 -46.2670 29° Northeast 468 539 31,000  Level FlightAware
07:43PM -19.4460 -46.2220 34° Northeast 470 541 31,000  Level FlightAware
07:44PM -19.3800 -46.1750 34° Northeast 470 541 31,000  Level FlightAware
07:44PM -19.3130 -46.1300 32° Northeast 470 541 31,000  Level FlightAware
07:45PM -19.2360 -46.0840 29° Northeast 470 541 31,000  Level FlightAware
07:46PM -19.1680 -46.0510 25° Northeast 468 539 31,000  Level FlightAware
07:46PM -19.1050 -46.0230 23° Northeast 470 541 31,000  Level FlightAware
07:47PM -19.0260 -45.9920 20° North 470 541 31,000  Level FlightAware
07:47PM -18.9620 -45.9680 20° North 471 542 31,000  Level FlightAware
07:48PM -18.8790 -45.9350 21° North 475 547 31,000  Level FlightAware
07:49PM -18.8170 -45.9060 24° Northeast 484 557 31,000 109 Level FlightAware
07:49PM -18.7760 -45.8720 38° Northeast 493 567 31,100  Climbing FlightAware
07:50PM -18.7190 -45.7970 51° Northeast 497 572 31,000 -80 Descending FlightAware
07:50PM -18.6770 -45.7200 60° Northeast 496 571 31,000  Level FlightAware
07:51PM -18.6370 -45.6480 60° Northeast 492 566 31,000  Level FlightAware
07:51PM -18.5980 -45.5780 60° Northeast 488 562 31,000  Level FlightAware
07:52PM -18.5590 -45.5060 60° Northeast 485 558 31,000  Level FlightAware
07:53PM -18.5170 -45.4320 59° Northeast 483 556 31,000  Level FlightAware
07:53PM -18.4680 -45.3670 52° Northeast 482 555 31,000  Level FlightAware
07:54PM -18.4120 -45.3150 41° Northeast 481 554 31,000  Level FlightAware
07:54PM -18.3450 -45.2650 35° Northeast 482 555 31,000  Level FlightAware
07:55PM -18.2850 -45.2190 36° Northeast 483 556 31,000  Level FlightAware
07:55PM -18.2180 -45.1700 35° Northeast 482 555 31,000  Level FlightAware
07:56PM -18.1520 -45.1280 31° Northeast 481 554 31,000  Level FlightAware
07:57PM -18.0840 -45.0850 31° Northeast 480 552 31,000  Level FlightAware
07:57PM -18.0210 -45.0440 32° Northeast 481 554 31,000  Level FlightAware
07:58PM -17.9550 -45.0010 32° Northeast 480 552 31,000  Level FlightAware
07:58PM -17.8860 -44.9570 31° Northeast 479 551 31,000  Level FlightAware
07:59PM -17.8230 -44.9150 32° Northeast 478 550 31,000  Level FlightAware
08:00PM -17.7600 -44.8720 33° Northeast 477 549 31,000  Level FlightAware
08:00PM -17.6910 -44.8260 32° Northeast 475 547 31,000  Level FlightAware
08:01PM -17.6240 -44.7810 33° Northeast 473 544 31,000  Level FlightAware
08:01PM -17.5660 -44.7430 32° Northeast 468 539 31,000  Level FlightAware
08:02PM -17.5370 -44.7300 23° Northeast 460 529 31,000  Level FlightAware
08:02PM -17.4880 -44.7210 10° North 450 518 31,000  Level FlightAware
08:02PM -17.4310 -44.7300 351° North 437 503 31,000  Level FlightAware
08:03PM -17.3900 -44.7480 337° Northwest 429 494 31,000  Level FlightAware
08:03PM -17.3290 -44.7810 333° Northwest 429 494 31,000  Level FlightAware
08:04PM -17.2590 -44.8180 333° Northwest 431 496 31,000  Level FlightAware
08:05PM -17.1960 -44.8510 333° Northwest 432 497 31,000  Level FlightAware
08:05PM -17.1240 -44.8890 333° Northwest 432 497 31,000  Level FlightAware
08:06PM -17.0710 -44.9170 333° Northwest 432 497 31,000  Level FlightAware
08:06PM -17.0080 -44.9510 333° Northwest 432 497 31,000  Level FlightAware
08:07PM -16.9450 -44.9840 333° Northwest 432 497 31,000  Level FlightAware
08:08PM -16.8740 -45.0220 333° Northwest 434 499 31,000  Level FlightAware
08:08PM -16.8010 -45.0600 334° Northwest 433 498 31,000  Level FlightAware
08:09PM -16.7380 -45.0930 333° Northwest 433 498 31,000  Level FlightAware
08:09PM -16.6910 -45.1180 333° Northwest 432 497 31,000  Level FlightAware
08:10PM -16.6140 -45.1590 333° Northwest 432 497 31,000  Level FlightAware
08:11PM -16.5580 -45.1880 334° Northwest 432 497 31,000  Level FlightAware
08:11PM -16.5010 -45.2190 332° Northwest 432 497 31,000  Level FlightAware
08:12PM -16.4460 -45.2480 333° Northwest 432 497 31,000  Level FlightAware
08:12PM -16.3920 -45.2770 333° Northwest 432 497 31,000  Level FlightAware
08:13PM -16.3370 -45.3060 333° Northwest 432 497 31,000  Level FlightAware
08:14PM -16.2830 -45.3350 333° Northwest 432 497 31,000  Level FlightAware
08:14PM -16.2280 -45.3640 333° Northwest 432 497 31,000  Level FlightAware
08:15PM -16.1740 -45.3920 334° Northwest 432 497 31,000  Level FlightAware
08:15PM -16.1180 -45.4220 333° Northwest 432 497 31,000  Level FlightAware
08:16PM -16.0630 -45.4510 333° Northwest 432 497 31,000  Level FlightAware
08:17PM -16.0090 -45.4800 333° Northwest 432 497 31,000  Level FlightAware
08:17PM -15.9530 -45.5100 333° Northwest 432 497 31,000  Level FlightAware
08:18PM -15.8980 -45.5380 334° Northwest 432 497 31,000 1,714 Level FlightAware
08:18PM -15.7020 -45.6130 340° North 33,000 3,529 Climbing FlightAware
08:18PM -15.6940 -45.6130 360° North 465 535 33,000 1,200 Level FlightAware
08:19PM -15.6340 -45.6120 North 467 537 33,600 1,200 Climbing FlightAware
08:19PM -15.5740 -45.6080 North 462 532 34,100 1,015 Climbing FlightAware
08:20PM -15.5010 -45.6030 North 463 533 34,700 960 Climbing FlightAware
08:21PM -15.4100 -45.5960 North 460 529 35,300 800 Climbing FlightAware
08:21PM -15.3350 -45.5900 North 462 532 35,700 627 Climbing FlightAware
08:22PM -15.2730 -45.5850 North 460 529 36,000 257 Climbing FlightAware
08:22PM -15.1870 -45.5780 North 457 526 36,000  Level FlightAware
08:23PM -15.1280 -45.5730 North 455 524 36,000  Level FlightAware
08:24PM -15.0520 -45.5710 North 454 522 36,000  Level FlightAware
08:24PM -15.0300 -45.5770 345° North 444 511 36,000  Level FlightAware
08:24PM -14.9670 -45.5850 353° North 442 509 36,000  Level FlightAware
08:25PM -14.8920 -45.6010 348° North 437 503 36,000  Level FlightAware
08:25PM -14.8580 -45.6140 340° North 431 496 36,000  Level FlightAware
08:26PM -14.7840 -45.6610 328° Northwest 426 490 36,000  Level FlightAware
08:26PM -14.7170 -45.7000 331° Northwest 428 493 36,000  Level FlightAware
08:27PM -14.6570 -45.7360 330° Northwest 429 494 36,000  Level FlightAware
08:28PM -14.6060 -45.7670 330° Northwest 430 495 36,000  Level FlightAware
08:28PM -14.5390 -45.8080 329° Northwest 430 495 36,000  Level FlightAware
08:29PM -14.4820 -45.8430 329° Northwest 430 495 36,000  Level FlightAware
08:29PM -14.4250 -45.8780 329° Northwest 431 496 36,000  Level FlightAware
08:30PM -14.3570 -45.9190 330° Northwest 432 497 36,000  Level FlightAware
08:30PM -14.3060 -45.9500 330° Northwest 433 498 36,000  Level FlightAware
08:31PM -14.2410 -45.9900 329° Northwest 433 498 36,000  Level FlightAware
08:32PM -14.1840 -46.0250 329° Northwest 434 499 36,000  Level FlightAware
08:32PM -14.1120 -46.0690 329° Northwest 435 501 36,000  Level FlightAware
08:33PM -14.0570 -46.1020 330° Northwest 436 502 36,000  Level FlightAware
08:33PM -14.0020 -46.1350 330° Northwest 435 501 36,000  Level FlightAware
08:34PM -13.9350 -46.1760 329° Northwest 436 502 36,000  Level FlightAware
08:35PM -13.8770 -46.2120 329° Northwest 436 502 36,000  Level FlightAware
08:35PM -13.8150 -46.2500 329° Northwest 436 502 36,000  Level FlightAware
08:36PM -13.7530 -46.2870 330° Northwest 437 503 36,000  Level FlightAware
08:36PM -13.6850 -46.3280 330° Northwest 438 504 36,000  Level FlightAware
08:37PM -13.6230 -46.3660 329° Northwest 439 505 36,000  Level FlightAware
08:37PM -13.5790 -46.3930 329° Northwest 439 505 36,000  Level FlightAware
08:38PM -13.5010 -46.4400 330° Northwest 440 506 36,000  Level FlightAware
08:39PM -13.4510 -46.4700 330° Northwest 441 507 36,000  Level FlightAware
08:39PM -13.3820 -46.5110 330° Northwest 441 507 36,000  Level FlightAware
08:40PM -13.3080 -46.5570 329° Northwest 442 509 36,000  Level FlightAware
08:41PM -13.2490 -46.5920 330° Northwest 442 509 36,000  Level FlightAware
08:42PM -13.1520 -46.6500 330° Northwest 442 509 36,000  Level FlightAware
08:42PM -13.0960 -46.6840 329° Northwest 442 509 36,000  Level FlightAware
08:43PM -13.0420 -46.7160 330° Northwest 442 509 36,000  Level FlightAware
08:43PM -12.9900 -46.7470 330° Northwest 442 509 36,000  Level FlightAware
08:44PM -12.9350 -46.7790 330° Northwest 442 509 36,000  Level FlightAware
08:45PM -12.8810 -46.8110 330° Northwest 442 509 36,000  Level FlightAware
08:45PM -12.8270 -46.8430 330° Northwest 442 509 36,000  Level FlightAware
08:46PM -12.7730 -46.8750 330° Northwest 442 509 36,000  Level FlightAware
08:46PM -12.7190 -46.9070 330° Northwest 442 509 36,000  Level FlightAware
08:47PM -12.6640 -46.9390 330° Northwest 442 509 36,000  Level FlightAware
08:48PM -12.6100 -46.9710 330° Northwest 442 509 36,000  Level FlightAware
08:48PM -12.5560 -47.0040 329° Northwest 442 509 36,000  Level FlightAware
08:49PM -12.5020 -47.0360 330° Northwest 442 509 36,000  Level FlightAware
08:49PM -12.4480 -47.0680 330° Northwest 442 509 36,000  Level FlightAware
08:50PM -12.3940 -47.1000 330° Northwest 442 509 36,000  Level FlightAware
08:51PM -12.3390 -47.1320 330° Northwest 442 509 36,000  Level FlightAware
08:52PM -11.9910 -47.3480 353° North 36,000  Level FlightAware
08:53PM -12.0141 -47.1730 353° North  Level Estimated
08:53PM -11.8730 -47.4190 330° Northwest 447 514 36,000  Level FlightAware
08:54PM -11.8120 -47.4560 329° Northwest 447 514 36,000  Level FlightAware
08:55PM -11.7580 -47.4890 329° Northwest 447 514 36,000  Level FlightAware
08:55PM -11.7040 -47.5220 329° Northwest 447 514 36,000  Level FlightAware
08:56PM -11.6010 -47.5810 331° Northwest 444 511 36,000  Level FlightAware
08:57PM -11.5350 -47.6200 330° Northwest 445 512 36,000  Level FlightAware
08:57PM -11.4470 -47.6720 330° Northwest 444 511 36,000  Level FlightAware
08:58PM -11.3870 -47.7090 329° Northwest 444 511 36,000  Level FlightAware
08:59PM -11.3010 -47.7590 330° Northwest 445 512 36,000  Level FlightAware
08:59PM -11.2510 -47.7900 329° Northwest 445 512 36,000  Level FlightAware
09:01PM -11.1730 -47.8360 330° Northwest 444 511 36,000  Level FlightAware
09:01PM -11.0500 -47.9080 330° Northwest 445 512 36,000  Level FlightAware
09:02PM -10.9960 -47.9400 330° Northwest 445 512 36,000  Level FlightAware
09:02PM -10.9380 -47.9760 329° Northwest 445 512 36,000  Level FlightAware
09:03PM -10.8360 -48.0350 330° Northwest 445 512 36,000  Level FlightAware
09:04PM -10.7580 -48.0820 329° Northwest 446 513 36,000  Level FlightAware
09:05PM -10.6850 -48.1250 330° Northwest 447 514 36,000  Level FlightAware
09:05PM -10.6670 -48.1360 329° Northwest 448 516 36,000  Level FlightAware
09:06PM -10.6810 -48.1270 148° Southeast 449 517 36,000  Level FlightAware
09:07PM -10.6260 -48.1610 329° Northwest 449 517 36,000  Level FlightAware
09:07PM -10.5720 -48.1940 329° Northwest 449 517 36,000  Level FlightAware
09:08PM -10.7230 -48.1020 149° Southeast 36,000  Level FlightAware
09:10PM -10.4123 -48.1147 358° North  Level Estimated
09:11PM -10.2488 -48.1214 358° North  Level Estimated
09:12PM -10.0852 -48.1281 358° North  Level Estimated
09:13PM -9.9217 -48.1347 358° North  Level Estimated
09:13PM -9.6440 -48.3670 358° North 457 526 36,000  Level FlightAware
09:13PM -9.6320 -48.3680 355° North 457 526 36,000  Level FlightAware
09:14PM -9.5870 -48.3680 360° North 457 526 36,000  Level FlightAware
09:14PM -9.5660 -48.3690 357° North 457 526 36,000  Level FlightAware
09:14PM -9.6320 -48.3680 179° South 458 527 36,000  Level FlightAware
09:14PM -9.5840 -48.3680 360° North 458 527 36,000  Level FlightAware
09:15PM -9.4530 -48.3700 359° North 457 526 36,000  Level FlightAware
09:15PM -9.4460 -48.3700 360° North 457 526 36,000  Level FlightAware
09:15PM -9.4330 -48.3700 360° North 457 526 36,000  Level FlightAware
09:15PM -9.4200 -48.3710 356° North 456 525 36,000  Level FlightAware
09:15PM -9.4050 -48.3710 360° North 456 525 36,000  Level FlightAware
09:15PM -9.3720 -48.3710 360° North 456 525 36,000  Level FlightAware
09:15PM -9.3610 -48.3710 360° North 456 525 36,000  Level FlightAware
09:16PM -9.3340 -48.3720 358° North 456 525 36,000  Level FlightAware
09:16PM -9.2960 -48.3720 360° North 456 525 36,000  Level FlightAware
09:16PM -9.2510 -48.3730 359° North 456 525 36,000  Level FlightAware
09:17PM -9.2300 -48.3730 360° North 456 525 36,000  Level FlightAware
09:17PM -9.2960 -48.3720 179° South 456 525 36,000  Level FlightAware
09:17PM -9.2500 -48.3730 359° North 456 525 36,000  Level FlightAware
09:17PM -9.2960 -48.3720 179° South 456 525 36,000  Level FlightAware
09:18PM -9.2510 -48.3730 359° North 456 525 36,000  Level FlightAware
09:18PM -9.2300 -48.3730 360° North 456 525 36,000  Level FlightAware
09:19PM -8.9630 -48.3770 359° North 457 526 36,000  Level FlightAware
09:19PM -8.8990 -48.3780 359° North 457 526 36,000  Level FlightAware
09:20PM -8.8340 -48.3790 359° North 457 526 36,000  Level FlightAware
09:20PM -8.7690 -48.3800 359° North 457 526 36,000  Level FlightAware
09:21PM -8.7050 -48.3810 359° North 457 526 36,000  Level FlightAware
09:22PM -8.6400 -48.3820 359° North 457 526 36,000  Level FlightAware
09:22PM -8.5750 -48.3840 358° North 457 526 36,000  Level FlightAware
09:23PM -8.5110 -48.3850 359° North 457 526 36,000  Level FlightAware
09:23PM -8.4420 -48.3860 359° North 457 526 36,000  Level FlightAware
09:24PM -8.3760 -48.3870 359° North 457 526 36,000  Level FlightAware
09:25PM -8.3090 -48.3880 359° North 457 526 36,000  Level FlightAware
09:25PM -8.2450 -48.3890 359° North 457 526 36,000  Level FlightAware
09:26PM -8.1800 -48.3910 358° North 457 526 36,000  Level FlightAware
09:26PM -8.1150 -48.3920 359° North 457 526 36,000  Level FlightAware
09:27PM -8.0510 -48.3930 359° North 457 526 36,000  Level FlightAware
09:28PM -7.9860 -48.3940 359° North 457 526 36,000 -149 Level FlightAware
09:30PM -7.6833 -48.3978 359° North  Level Estimated
09:31PM -7.5196 -48.3999 359° North  Level Estimated
09:32PM -7.3560 -48.4019 359° North  Level Estimated
09:33PM -7.1923 -48.4040 359° North  Level Estimated
09:34PM -7.0287 -48.4060 359° North  Level Estimated
09:35PM -6.8650 -48.4081 359° North  Level Estimated
09:36PM -6.7014 -48.4101 359° North  Level Estimated
09:37PM -6.5377 -48.4122 359° North  Level Estimated
09:38PM -6.3741 -48.4142 359° North  Level Estimated
09:39PM -6.2104 -48.4163 359° North  Level Estimated
09:40PM -6.0468 -48.4183 359° North  Level Estimated
09:41PM -5.8831 -48.4204 359° North  Level Estimated
09:42PM -5.7195 -48.4224 359° North  Level Estimated
09:43PM -5.5558 -48.4245 359° North  Level Estimated
09:44PM -5.3922 -48.4265 359° North  Level Estimated
09:45PM -5.2285 -48.4285 359° North  Level Estimated
09:46PM -5.0649 -48.4306 359° North  Level Estimated
09:47PM -4.9012 -48.4326 359° North  Level Estimated
09:48PM -4.7376 -48.4347 359° North  Level Estimated
09:49PM -4.5739 -48.4367 359° North  Level Estimated
09:50PM -4.4103 -48.4387 359° North  Level Estimated
09:51PM -4.2466 -48.4408 359° North  Level Estimated
09:52PM -4.0830 -48.4428 359° North  Level Estimated
09:53PM -3.9193 -48.4448 359° North  Level Estimated
09:54PM -3.7557 -48.4468 359° North  Level Estimated
09:55PM -3.5920 -48.4489 359° North  Level Estimated
09:56PM -3.4284 -48.4509 359° North  Level Estimated
09:57PM -3.2647 -48.4529 359° North  Level Estimated
09:58PM -3.1011 -48.4550 359° North  Level Estimated
09:59PM -2.9374 -48.4570 359° North  Level Estimated
10:00PM -2.7738 -48.4590 359° North  Level Estimated
10:01PM -2.6101 -48.4611 359° North  Level Estimated
10:02PM -2.4465 -48.4631 359° North  Level Estimated
10:03PM -2.2828 -48.4651 359° North  Level Estimated
10:04PM -2.1192 -48.4671 359° North  Level Estimated
10:04PM -3.2540 -48.4540 359° North 430 495 30,500  Level FlightAware
10:05PM -3.1810 -48.4550 359° North 424 488 29,200 -1,973 Descending FlightAware
10:05PM -3.1220 -48.4550 360° North 420 483 28,100 -2,000 Descending FlightAware
10:06PM -3.0520 -48.4560 359° North 417 480 27,000 -2,029 Descending FlightAware
10:06PM -2.9830 -48.4570 359° North 414 476 25,800 -2,057 Descending FlightAware
10:07PM -2.9210 -48.4580 359° North 413 475 24,600 -2,057 Descending FlightAware
10:07PM -2.8440 -48.4590 359° North 411 473 23,400 -1,971 Descending FlightAware
10:08PM -2.7820 -48.4600 359° North 409 471 22,300 -1,944 Descending FlightAware
10:09PM -2.7150 -48.4610 359° North 397 457 21,100 -1,944 Descending FlightAware
10:09PM -2.6540 -48.4620 359° North 390 449 20,000 -1,913 Descending FlightAware
10:10PM -2.5870 -48.4630 359° North 380 437 18,900 -1,667 Descending FlightAware
10:10PM -2.5300 -48.4640 359° North 371 427 18,000 -1,667 Descending FlightAware
10:11PM -2.4600 -48.4640 360° North 360 414 16,900 -1,791 Descending FlightAware
10:12PM -2.4110 -48.4650 359° North 352 405 16,000 -1,636 Descending FlightAware
10:12PM -2.3530 -48.4720 353° North 348 400 15,100 -1,600 Descending FlightAware
10:13PM -2.2880 -48.4800 353° North 339 390 14,000 -1,583 Descending FlightAware
10:13PM -2.2420 -48.4860 353° North 332 382 13,200 -1,412 Descending FlightAware
10:14PM -2.1900 -48.4920 353° North 326 375 12,400 -1,437 Descending FlightAware
10:15PM -2.1350 -48.4980 354° North 323 372 11,500 -1,478 Descending FlightAware
10:15PM -2.0860 -48.5040 353° North 321 369 10,700 -828 Descending FlightAware
10:16PM -2.0150 -48.5130 353° North 315 362 10,300 -885 Descending FlightAware
10:16PM -1.9990 -48.5140 356° North 299 344 9,800 -2,000 Descending FlightAware
10:17PM -1.9650 -48.5180 353° North 298 343 9,200 -1,435 Descending FlightAware
10:17PM -1.9330 -48.5220 353° North 298 343 8,700 -1,463 Descending FlightAware
10:17PM -1.9070 -48.5250 353° North 298 343 8,200 -1,463 Descending FlightAware
10:18PM -1.8770 -48.5290 352° North 297 342 7,700 -1,463 Descending FlightAware
10:18PM -1.8510 -48.5320 353° North 298 343 7,200 -1,500 Descending FlightAware
10:18PM -1.8200 -48.5360 353° North 297 342 6,700 -1,500 Descending FlightAware
10:19PM -1.7940 -48.5390 353° North 296 341 6,200 -1,395 Descending FlightAware
10:19PM -1.7660 -48.5420 354° North 292 336 5,700 -1,347 Descending FlightAware
10:19PM -1.7320 -48.5460 353° North 288 331 5,100 -1,440 Descending FlightAware
10:20PM -1.6970 -48.5500 353° North 283 326 4,500 -1,091 Descending FlightAware
10:20PM -1.6700 -48.5540 352° North 270 311 4,300 -585 Descending FlightAware
10:20PM -1.6480 -48.5560 355° North 255 293 4,100 -286 Descending FlightAware
10:21PM -1.6230 -48.5590 353° North 239 275 4,100  Level FlightAware
10:21PM -1.6010 -48.5620 352° North 234 269 4,100 -167 Level FlightAware
10:21PM -1.5830 -48.5680 342° North 234 269 4,000 -500 Descending FlightAware
10:22PM -1.5650 -48.5760 336° Northwest 230 265 3,800 -878 Descending FlightAware
10:22PM -1.5430 -48.5870 333° Northwest 227 261 3,400 -1,034 Descending FlightAware
10:23PM -1.5080 -48.5970 344° North 206 237 2,800 -750 Descending FlightAware
10:23PM -1.4990 -48.5930 24° Northeast 198 228 2,800 -286 Level FlightAware
10:23PM -1.4920 -48.5880 36° Northeast 192 221 2,700 -789 Descending FlightAware
10:24PM -1.4740 -48.5720 42° Northeast 176 203 2,300 -750 Descending FlightAware
10:24PM -1.4630 -48.5610 45° Northeast 154 177 2,100 -732 Descending FlightAware
10:24PM -1.4550 -48.5520 48° Northeast 146 168 1,800 -769 Descending FlightAware
10:24PM -1.4460 -48.5430 45° Northeast 141 162 1,600 -682 Descending FlightAware
10:25PM -1.4330 -48.5300 45° Northeast 142 163 1,300 -783 Descending FlightAware
10:25PM -1.4230 -48.5200 45° Northeast 140 161 1,000 -750 Descending FlightAware
10:26PM -1.4140 -48.5120 42° Northeast 141 162 800 -652 Descending FlightAware
10:26PM -1.4030 -48.5000 47° Northeast 139 160 500 -638 Descending FlightAware
10:26PM -1.3950 -48.4920 45° Northeast 141 162 300 -571 Descending FlightAware
10:27PM -1.3820 -48.4790 45° Northeast 135 155 -783 Descending FlightAware
10:27PM -1.3800 -48.4760 56° Northeast 84 97  Level FlightAware